METAR UND TAF INFORMATION
ESMS 162220Z 27008KT 8000 BKN005 OVC029 12/12 Q1007

 FLUGHAFENKARTE

 RUNWAY INFORMATION
Runway 11 Runway length 2615 ft Runway width 75 ft
Runway elevation 232 ft Runway displaced threshold 0 ft Runway heading 105
Runway 29 Runway length 2615 ft Runway width 75 ft
Runway elevation 228 ft Runway displaced threshold 0 ft Runway heading 285
Runway 17 Runway length 9186 ft Runway width 148 ft
Runway elevation 209 ft Runway displaced threshold 0 ft Runway heading 173
Runway 35 Runway length 9186 ft Runway width 148 ft
Runway elevation 236 ft Runway displaced threshold 0 ft Runway heading 353

 AIRPORT FREQUENCIES
Type APP Name MALMO CON Frequency 135.9 MHZ
Type ATIS Name ATIS Frequency 129.275 MHZ
Type TWR Name TWR Frequency 118.8 MHZ

 AIRPORT NEAR NAVIGATION AIDS
Type NDB Name Sturup Frequency 351 KHZ
Type NDB Name Sturup Frequency 420 KHZ
Type VOR-DME Name Sturup Frequency 113000 KHZ